createdAt,value
2022-09-06T00:00:18.961Z,99.90
2022-09-06T00:05:20.840Z,99.90
2022-09-06T00:10:22.533Z,99.90
2022-09-06T00:15:24.213Z,99.90
2022-09-06T00:20:27.393Z,99.90
2022-09-06T00:25:30.461Z,99.90
2022-09-06T00:30:33.364Z,99.90
2022-09-06T00:35:35.164Z,99.90
2022-09-06T00:40:37.069Z,99.90
2022-09-06T00:45:39.452Z,99.90
2022-09-06T00:50:41.424Z,99.90
2022-09-06T00:55:43.691Z,99.90
2022-09-06T01:00:45.394Z,99.90
2022-09-06T01:05:54.425Z,99.90
2022-09-06T01:11:24.243Z,99.90
2022-09-06T01:16:53.166Z,99.90
2022-09-06T01:22:34.710Z,99.90
2022-09-06T01:28:01.716Z,99.90
2022-09-06T01:33:32.993Z,99.90
2022-09-06T01:38:35.551Z,99.90
2022-09-06T01:43:40.625Z,99.90
2022-09-06T01:49:09.986Z,99.90
2022-09-06T01:54:28.319Z,99.90
2022-09-06T02:00:00.952Z,99.90
2022-09-06T02:05:11.603Z,99.90
2022-09-06T02:10:28.916Z,99.90
2022-09-06T02:15:34.735Z,99.90
2022-09-06T02:20:41.544Z,99.90
2022-09-06T02:25:51.221Z,99.90
2022-09-06T02:31:06.977Z,99.90
2022-09-06T02:36:09.810Z,99.90
2022-09-06T02:41:14.019Z,99.90
2022-09-06T02:46:15.903Z,99.90
2022-09-06T02:51:18.385Z,99.90
2022-09-06T02:56:20.091Z,99.90
2022-09-06T03:01:21.848Z,99.90
2022-09-06T03:06:24.213Z,99.90
2022-09-06T03:11:26.990Z,99.90
2022-09-06T03:16:28.739Z,99.90
2022-09-06T03:21:30.565Z,99.90
2022-09-06T03:26:32.293Z,99.90
2022-09-06T03:31:34.178Z,99.90
2022-09-06T03:36:35.973Z,99.90
2022-09-06T03:41:38.349Z,99.90
2022-09-06T03:46:40.132Z,99.90
2022-09-06T03:51:41.919Z,99.90
2022-09-06T03:56:43.799Z,99.90
2022-09-06T04:01:45.543Z,99.90
2022-09-06T04:06:47.335Z,99.90
2022-09-06T04:11:49.115Z,99.90
2022-09-06T04:16:51.096Z,99.90
2022-09-06T04:21:52.869Z,99.90
2022-09-06T04:26:54.613Z,99.90
2022-09-06T04:31:56.347Z,99.90
2022-09-06T04:36:58.440Z,99.90
2022-09-06T04:42:00.136Z,99.90
2022-09-06T04:47:14.778Z,99.90
2022-09-06T04:52:17.004Z,99.90
2022-09-06T04:57:18.751Z,99.90
2022-09-06T05:02:20.613Z,99.90
2022-09-06T05:07:22.532Z,99.90
2022-09-06T05:12:24.267Z,99.90
2022-09-06T05:17:25.975Z,99.90
2022-09-06T05:22:27.735Z,99.90
2022-09-06T05:27:29.424Z,99.90
2022-09-06T05:32:31.161Z,99.90
2022-09-06T05:37:32.900Z,99.90
2022-09-06T05:42:34.680Z,99.90
2022-09-06T05:47:36.899Z,99.90
2022-09-06T05:52:39.820Z,99.90
2022-09-06T05:57:41.536Z,99.90
2022-09-06T06:02:43.411Z,99.90
2022-09-06T06:07:45.219Z,99.90
2022-09-06T06:12:47.058Z,99.90
2022-09-06T06:17:48.739Z,99.90
2022-09-06T06:22:50.518Z,99.90
2022-09-06T06:27:52.917Z,99.90
2022-09-06T06:32:54.678Z,99.90
2022-09-06T06:37:56.984Z,99.90
2022-09-06T06:42:58.805Z,99.90
2022-09-06T06:48:00.499Z,99.90
2022-09-06T06:53:02.178Z,99.90
2022-09-06T06:58:03.896Z,99.90
2022-09-06T07:03:06.752Z,99.90
2022-09-06T07:08:11.040Z,99.90
2022-09-06T07:13:12.753Z,99.90
2022-09-06T07:18:18.188Z,99.90
2022-09-06T07:28:42.147Z,99.90
2022-09-06T07:33:43.830Z,99.90
2022-09-06T07:38:49.838Z,99.90
2022-09-06T07:43:55.046Z,99.90
2022-09-06T07:48:56.877Z,99.90
2022-09-06T07:54:13.276Z,99.90
2022-09-06T07:59:24.674Z,99.90
2022-09-06T08:04:26.709Z,99.90
2022-09-06T08:09:28.461Z,99.90
2022-09-06T08:14:30.184Z,99.90
2022-09-06T08:19:32.019Z,99.90
2022-09-06T08:24:35.722Z,99.90
2022-09-06T08:29:37.828Z,99.90
2022-09-06T08:34:39.864Z,99.90
2022-09-06T08:39:41.750Z,99.90
2022-09-06T08:50:06.815Z,99.90
2022-09-06T08:55:38.091Z,99.90
2022-09-06T09:00:42.472Z,99.90
2022-09-06T09:05:48.358Z,99.90
2022-09-06T09:11:23.585Z,99.90
2022-09-06T09:16:25.499Z,99.90
2022-09-06T09:21:31.183Z,99.90
2022-09-06T09:26:56.708Z,99.90
2022-09-06T09:31:58.576Z,99.90
2022-09-06T09:42:37.045Z,99.90
2022-09-06T09:47:38.736Z,99.90
2022-09-06T09:52:44.753Z,99.90
2022-09-06T09:57:48.532Z,99.90
2022-09-06T10:02:50.292Z,99.90
2022-09-06T10:07:54.816Z,99.90
2022-09-06T10:13:21.300Z,99.90
2022-09-06T10:18:41.945Z,99.90
2022-09-06T10:29:44.783Z,99.90
2022-09-06T10:35:07.537Z,99.90
2022-09-06T10:40:12.283Z,99.90
2022-09-06T10:45:37.965Z,99.90
2022-09-06T10:51:05.528Z,99.90
2022-09-06T10:56:16.829Z,99.90
2022-09-06T11:01:41.916Z,99.90
2022-09-06T11:06:53.356Z,99.90
2022-09-06T11:12:12.468Z,99.90
2022-09-06T11:17:35.020Z,99.90
2022-09-06T11:23:02.265Z,99.90
2022-09-06T11:28:10.517Z,99.90
2022-09-06T11:33:24.422Z,99.90
2022-09-06T11:38:27.766Z,99.90
2022-09-06T11:43:43.721Z,99.90
2022-09-06T11:49:08.071Z,99.90
2022-09-06T11:54:18.893Z,99.90
2022-09-06T11:59:30.037Z,99.90
2022-09-06T12:05:07.158Z,99.90
2022-09-06T12:10:30.344Z,99.90
2022-09-06T12:15:56.437Z,99.90
2022-09-06T12:21:01.227Z,99.90
2022-09-06T12:26:10.495Z,99.90
2022-09-06T12:31:52.303Z,99.90
2022-09-06T12:37:07.484Z,99.90
2022-09-06T12:42:13.208Z,99.90
2022-09-06T12:47:25.415Z,99.90
2022-09-06T12:52:27.182Z,99.90
2022-09-06T12:57:29.605Z,99.90
2022-09-06T13:02:43.039Z,99.90
2022-09-06T13:07:49.764Z,99.90
2022-09-06T13:12:53.080Z,99.90
2022-09-06T13:18:22.679Z,99.90
2022-09-06T13:23:24.893Z,99.90
2022-09-06T13:28:32.235Z,99.90
2022-09-06T13:33:34.720Z,99.90
2022-09-06T13:38:41.239Z,99.90
2022-09-06T13:43:45.305Z,99.90
2022-09-06T13:48:50.696Z,99.90
2022-09-06T13:54:07.761Z,99.90
2022-09-06T13:59:10.643Z,99.90
2022-09-06T14:04:15.241Z,99.90
2022-09-06T14:09:17.104Z,99.90
2022-09-06T14:14:19.438Z,99.90
2022-09-06T14:19:21.461Z,99.90
2022-09-06T14:24:23.549Z,99.90
2022-09-06T14:29:25.290Z,99.90
2022-09-06T14:34:27.738Z,99.90
2022-09-06T14:39:29.572Z,99.90
2022-09-06T14:44:31.395Z,99.90
2022-09-06T14:49:33.204Z,99.90
2022-09-06T14:54:35.372Z,99.90
2022-09-06T14:59:37.215Z,99.90
2022-09-06T15:04:38.996Z,99.90
2022-09-06T15:09:41.030Z,99.90
2022-09-06T15:14:43.008Z,99.90
2022-09-06T15:19:45.756Z,99.90
2022-09-06T15:24:47.588Z,99.90
2022-09-06T15:29:49.426Z,99.90
2022-09-06T15:34:51.489Z,99.90
2022-09-06T15:39:53.600Z,99.90
2022-09-06T15:44:56.292Z,99.90
2022-09-06T15:49:58.046Z,99.90
2022-09-06T15:55:18.871Z,99.90
2022-09-06T16:00:22.511Z,99.90
2022-09-06T16:10:46.653Z,99.90
2022-09-06T16:16:02.926Z,98.80
2022-09-06T16:21:08.189Z,99.00
2022-09-06T16:26:10.024Z,99.90
2022-09-06T16:31:11.797Z,99.00
2022-09-06T16:36:14.445Z,99.10
2022-09-06T16:41:31.613Z,99.20
2022-09-06T16:46:33.605Z,97.70
2022-09-06T16:51:35.341Z,97.40
2022-09-06T16:56:37.240Z,98.30
2022-09-06T17:01:43.446Z,97.80
2022-09-06T17:06:45.674Z,98.70
2022-09-06T17:11:51.109Z,97.80
2022-09-06T17:17:05.132Z,98.60
2022-09-06T17:22:12.598Z,99.90
2022-09-06T17:27:14.548Z,99.90
2022-09-06T17:32:16.323Z,99.90
2022-09-06T17:37:18.016Z,99.90
2022-09-06T17:42:20.024Z,99.90
2022-09-06T17:47:21.788Z,99.90
2022-09-06T17:52:23.624Z,99.90
2022-09-06T17:57:25.335Z,99.90
2022-09-06T18:02:27.143Z,99.90
2022-09-06T18:07:29.290Z,99.90
2022-09-06T18:12:31.489Z,99.90
2022-09-06T18:17:33.340Z,99.90
2022-09-06T18:22:37.027Z,99.90
2022-09-06T18:27:38.734Z,99.90
2022-09-06T18:32:41.216Z,99.90
2022-09-06T18:37:42.909Z,99.90
2022-09-06T18:42:45.154Z,99.90
2022-09-06T18:47:47.366Z,99.90
2022-09-06T18:52:49.212Z,99.90
2022-09-06T18:57:51.247Z,99.90
2022-09-06T19:02:53.787Z,99.90
2022-09-06T19:07:55.802Z,99.90
2022-09-06T19:12:59.553Z,99.90
2022-09-06T19:18:03.216Z,99.90
2022-09-06T19:23:07.544Z,99.90
2022-09-06T19:28:09.213Z,99.90
2022-09-06T19:33:11.195Z,99.90
2022-09-06T19:38:13.312Z,99.90
2022-09-06T19:43:15.032Z,99.90
2022-09-06T19:48:16.821Z,99.90
2022-09-06T19:53:18.516Z,99.90
2022-09-06T19:58:20.232Z,99.90
2022-09-06T20:03:22.100Z,99.90
2022-09-06T20:08:24.267Z,99.90
2022-09-06T20:13:27.015Z,99.90
2022-09-06T20:18:28.925Z,99.90
2022-09-06T20:23:32.372Z,99.90
2022-09-06T20:28:35.234Z,99.90
2022-09-06T20:33:37.769Z,99.90
2022-09-06T20:38:41.684Z,99.90
2022-09-06T20:43:43.653Z,99.90
2022-09-06T20:48:46.266Z,99.90
2022-09-06T20:53:55.498Z,99.90
2022-09-06T20:59:02.335Z,99.90
2022-09-06T21:04:06.604Z,99.90
2022-09-06T21:09:11.272Z,99.90
2022-09-06T21:14:13.803Z,99.90
2022-09-06T21:19:16.372Z,99.90
2022-09-06T21:24:18.278Z,99.90
2022-09-06T21:29:20.065Z,99.90
2022-09-06T21:34:22.428Z,99.90
2022-09-06T21:39:24.288Z,99.90
2022-09-06T21:44:26.270Z,99.90
2022-09-06T21:49:27.975Z,99.90
2022-09-06T21:54:29.825Z,99.90
2022-09-06T21:59:31.510Z,99.90
2022-09-06T22:04:33.284Z,99.90
2022-09-06T22:09:35.082Z,99.90
2022-09-06T22:14:37.025Z,99.90
2022-09-06T22:19:38.743Z,99.90
2022-09-06T22:24:40.516Z,99.90
2022-09-06T22:29:42.296Z,99.90
2022-09-06T22:34:44.456Z,99.90
2022-09-06T22:39:48.034Z,99.90
2022-09-06T22:44:49.821Z,99.90
2022-09-06T22:49:51.792Z,99.90
2022-09-06T22:54:53.462Z,99.90
2022-09-06T23:00:01.909Z,99.90
2022-09-06T23:05:04.177Z,99.90
2022-09-06T23:10:06.500Z,99.90
2022-09-06T23:15:08.614Z,99.90
2022-09-06T23:20:10.565Z,99.90
2022-09-06T23:25:12.500Z,99.90
2022-09-06T23:30:14.749Z,99.90
2022-09-06T23:35:17.080Z,99.90
2022-09-06T23:40:19.520Z,99.90
2022-09-06T23:45:21.383Z,99.90
2022-09-06T23:50:23.210Z,99.90
2022-09-06T23:55:24.953Z,99.90
